Time;durP1;ratioP1;P1;durP2;ratioP2;P2;SDS_P1;SDS_P2;PMS_P1;PMS_P2;Temp;Humidity;BMP_temperature;BMP_pressure;BME280_temperature;BME280_humidity;BME280_pressure;Samples;Min_cycle;Max_cycle;Signal;HPM_P1;HPM_P2
2022/04/01 00:01:26;;;;;;;;;1.00;1.00;;;;;;;;5074530;28;45537;-77
2022/04/01 00:03:51;;;;;;;;;1.00;1.00;;;;;;;;5075141;27;45253;-78
2022/04/01 00:06:16;;;;;;;;;1.00;1.00;;;;;;;;5075280;27;45506;-78
2022/04/01 00:08:41;;;;;;;;;1.25;1.00;;;;;;;;5063088;28;46842;-77
2022/04/01 00:11:07;;;;;;;;;1.50;1.50;;;;;;;;5070202;28;45469;-76
2022/04/01 00:13:32;;;;;;;;;1.00;1.00;;;;;;;;5074740;28;45523;-76
2022/04/01 00:15:59;;;;;;;;;3.25;1.25;;;;;;;;5074521;28;45494;-78
2022/04/01 00:18:24;;;;;;;;;1.00;1.00;;;;;;;;5074889;27;46440;-78
2022/04/01 00:20:49;;;;;;;;;1.00;1.00;;;;;;;;5075176;28;45489;-78
2022/04/01 00:23:15;;;;;;;;;1.50;1.00;;;;;;;;5074972;28;45446;-78
2022/04/01 00:25:42;;;;;;;;;1.75;1.75;;;;;;;;5074804;28;45360;-78
2022/04/01 00:28:07;;;;;;;;;1.00;0.00;;;;;;;;5074896;28;47054;-78
2022/04/01 00:30:38;;;;;;;;;1.50;1.50;;;;;;;;5074767;27;45313;-77
2022/04/01 00:33:04;;;;;;;;;3.00;2.00;;;;;;;;5075622;27;45567;-77
2022/04/01 00:35:32;;;;;;;;;2.75;1.50;;;;;;;;5074623;27;45468;-78
2022/04/01 00:37:57;;;;;;;;;1.00;1.00;;;;;;;;5074680;27;46256;-77
2022/04/01 00:40:22;;;;;;;;;1.00;1.00;;;;;;;;5074241;28;45428;-77
2022/04/01 00:42:48;;;;;;;;;4.25;1.50;;;;;;;;5058875;28;45438;-77
2022/04/01 00:45:16;;;;;;;;;1.00;1.00;;;;;;;;5075171;27;45345;-78
2022/04/01 00:47:41;;;;;;;;;0.75;0.75;;;;;;;;5062702;28;46493;-77
2022/04/01 00:50:07;;;;;;;;;1.00;0.00;;;;;;;;5070058;28;45348;-77
2022/04/01 00:52:33;;;;;;;;;2.75;1.25;;;;;;;;5074749;27;45334;-77
2022/04/01 00:54:59;;;;;;;;;0.50;0.50;;;;;;;;5074723;27;45318;-78
2022/04/01 00:57:25;;;;;;;;;0.75;0.75;;;;;;;;5074376;27;46114;-77
2022/04/01 00:59:52;;;;;;;;;4.00;2.00;;;;;;;;5074614;28;45567;-78
2022/04/01 01:02:17;;;;;;;;;1.50;1.50;;;;;;;;5074211;28;45459;-76
2022/04/01 01:04:43;;;;;;;;;0.00;0.00;;;;;;;;5076294;28;45362;-77
2022/04/01 01:07:09;;;;;;;;;1.00;1.00;;;;;;;;5076303;27;47074;-77
2022/04/01 01:09:34;;;;;;;;;3.00;0.00;;;;;;;;5077404;27;45400;-81
2022/04/01 01:11:59;;;;;;;;;1.00;1.00;;;;;;;;5068833;28;45407;-82
2022/04/01 01:14:30;;;;;;;;;2.75;1.75;;;;;;;;5071927;28;45578;-84
2022/04/01 01:16:56;;;;;;;;;1.50;1.00;;;;;;;;5071395;28;47113;-83
2022/04/01 01:19:21;;;;;;;;;3.00;0.25;;;;;;;;5077971;27;45407;-83
2022/04/01 01:21:50;;;;;;;;;0.00;0.00;;;;;;;;5078182;27;45350;-83
2022/04/01 01:24:16;;;;;;;;;1.50;0.50;;;;;;;;5078373;27;45300;-83
2022/04/01 01:26:44;;;;;;;;;1.00;1.00;;;;;;;;5065714;28;46346;-83
2022/04/01 01:29:10;;;;;;;;;1.00;1.00;;;;;;;;5073399;28;45398;-83
2022/04/01 01:31:35;;;;;;;;;0.50;0.50;;;;;;;;5078147;27;45298;-84
2022/04/01 01:34:00;;;;;;;;;1.50;1.00;;;;;;;;5078492;27;45378;-83
2022/04/01 01:36:27;;;;;;;;;1.00;1.00;;;;;;;;5077768;27;46318;-83
2022/04/01 01:38:52;;;;;;;;;1.00;1.00;;;;;;;;5078300;27;45379;-83
2022/04/01 01:41:18;;;;;;;;;0.00;0.00;;;;;;;;5077312;28;45603;-84
2022/04/01 01:43:43;;;;;;;;;1.00;1.00;;;;;;;;5075698;28;45517;-84
2022/04/01 01:46:09;;;;;;;;;2.00;1.00;;;;;;;;5077509;27;46825;-84
2022/04/01 01:48:34;;;;;;;;;0.50;0.50;;;;;;;;5077927;27;45365;-84
2022/04/01 01:56:27;;;;;;;;;2.25;1.00;;;;;;;;5078919;28;45220;-83
2022/04/01 01:58:54;;;;;;;;;1.00;1.00;;;;;;;;5078606;27;45372;-83
2022/04/01 02:01:19;;;;;;;;;3.25;1.00;;;;;;;;5077505;27;45408;-83
2022/04/01 02:03:44;;;;;;;;;0.00;0.00;;;;;;;;5061174;28;45465;-83
2022/04/01 02:06:10;;;;;;;;;0.25;0.25;;;;;;;;5061656;28;46206;-83
2022/04/01 02:08:35;;;;;;;;;2.00;0.25;;;;;;;;5076302;28;45436;-83
2022/04/01 02:11:00;;;;;;;;;1.00;1.00;;;;;;;;5070926;28;45351;-84
2022/04/01 02:13:29;;;;;;;;;0.00;0.00;;;;;;;;5066615;28;45372;-84
2022/04/01 02:15:54;;;;;;;;;1.00;0.00;;;;;;;;5075458;27;46204;-84
2022/04/01 02:18:20;;;;;;;;;2.00;2.00;;;;;;;;5078188;28;45297;-84
2022/04/01 02:20:46;;;;;;;;;2.25;0.75;;;;;;;;5077637;27;45489;-84
2022/04/01 02:23:11;;;;;;;;;1.00;1.00;;;;;;;;5077143;27;45472;-84
2022/04/01 02:25:36;;;;;;;;;2.00;1.00;;;;;;;;5077751;28;46261;-84
2022/04/01 02:28:02;;;;;;;;;0.50;0.00;;;;;;;;5077053;28;45503;-84
2022/04/01 02:30:27;;;;;;;;;3.00;1.50;;;;;;;;5076912;28;45361;-84
2022/04/01 02:32:52;;;;;;;;;2.00;2.00;;;;;;;;5077140;28;45341;-84
2022/04/01 02:35:18;;;;;;;;;3.75;1.00;;;;;;;;5076414;28;46169;-83
2022/04/01 02:37:44;;;;;;;;;1.25;0.75;;;;;;;;5076507;27;45338;-83
2022/04/01 02:40:10;;;;;;;;;1.25;1.25;;;;;;;;5076494;27;45442;-84
2022/04/01 02:42:35;;;;;;;;;3.75;1.25;;;;;;;;5076917;28;45418;-83
2022/04/01 02:45:00;;;;;;;;;2.00;1.25;;;;;;;;5062832;27;46032;-84
2022/04/01 02:47:25;;;;;;;;;5.25;2.00;;;;;;;;5074274;28;45753;-84
2022/04/01 02:49:51;;;;;;;;;1.00;1.00;;;;;;;;5076340;27;45866;-82
2022/04/01 02:52:16;;;;;;;;;1.50;1.00;;;;;;;;5076655;28;45501;-83
2022/04/01 02:54:41;;;;;;;;;2.75;1.25;;;;;;;;5059646;28;46895;-83
2022/04/01 02:57:09;;;;;;;;;1.00;1.00;;;;;;;;5076776;28;45292;-84
2022/04/01 02:59:34;;;;;;;;;1.25;1.25;;;;;;;;5076217;28;45496;-84
2022/04/01 03:01:59;;;;;;;;;1.50;0.25;;;;;;;;5071110;27;45539;-83
2022/04/01 03:04:24;;;;;;;;;2.00;1.50;;;;;;;;5070312;28;45574;-83
2022/04/01 03:06:49;;;;;;;;;1.00;1.00;;;;;;;;5076388;28;45585;-84
2022/04/01 03:09:15;;;;;;;;;3.00;2.00;;;;;;;;5076619;28;45288;-84
2022/04/01 03:11:41;;;;;;;;;1.00;0.00;;;;;;;;5076055;27;45221;-84
2022/04/01 03:14:08;;;;;;;;;1.00;1.00;;;;;;;;5075914;27;48661;-84
2022/04/01 03:16:34;;;;;;;;;1.75;1.75;;;;;;;;5075586;27;45408;-83
2022/04/01 03:18:59;;;;;;;;;1.75;1.00;;;;;;;;5075976;27;45930;-83
2022/04/01 03:21:25;;;;;;;;;1.00;1.00;;;;;;;;5075857;27;45559;-84
2022/04/01 03:23:51;;;;;;;;;2.00;2.00;;;;;;;;5063222;27;46053;-82
2022/04/01 03:26:16;;;;;;;;;2.00;1.00;;;;;;;;5071966;28;45429;-84
2022/04/01 03:28:42;;;;;;;;;3.00;1.25;;;;;;;;5075472;27;45520;-83
2022/04/01 03:31:09;;;;;;;;;1.50;1.50;;;;;;;;5075812;28;45477;-83
2022/04/01 03:33:35;;;;;;;;;0.25;0.25;;;;;;;;5075503;27;47107;-85
2022/04/01 03:36:00;;;;;;;;;1.00;1.00;;;;;;;;5076042;27;45502;-84
2022/04/01 03:38:26;;;;;;;;;2.00;1.75;;;;;;;;5075122;27;45338;-84
2022/04/01 03:40:51;;;;;;;;;1.00;1.00;;;;;;;;5075460;27;45427;-83
2022/04/01 03:43:17;;;;;;;;;0.75;0.75;;;;;;;;5075359;28;46300;-83
2022/04/01 03:45:46;;;;;;;;;8.00;8.00;;;;;;;;5075475;27;45480;-83
2022/04/01 03:48:23;;;;;;;;;0.50;0.50;;;;;;;;5076216;27;45380;-83
2022/04/01 03:50:50;;;;;;;;;0.75;0.00;;;;;;;;5062300;28;45411;-83
2022/04/01 03:53:16;;;;;;;;;0.25;0.00;;;;;;;;5071329;28;46112;-83
2022/04/01 03:55:42;;;;;;;;;0.00;0.00;;;;;;;;5071842;27;45383;-84
2022/04/01 03:58:08;;;;;;;;;0.00;0.00;;;;;;;;5062491;28;45376;-83
2022/04/01 04:00:34;;;;;;;;;1.75;1.00;;;;;;;;5058965;27;45346;-83
2022/04/01 04:03:06;;;;;;;;;1.00;1.00;;;;;;;;5061477;27;46485;-83
2022/04/01 04:05:33;;;;;;;;;0.00;0.00;;;;;;;;5073822;28;45251;-83
2022/04/01 04:07:58;;;;;;;;;0.00;0.00;;;;;;;;5075480;27;45567;-83
2022/04/01 04:10:27;;;;;;;;;0.50;0.50;;;;;;;;5074435;27;45516;-83
2022/04/01 04:12:52;;;;;;;;;1.50;1.50;;;;;;;;5059608;28;46274;-82
2022/04/01 04:15:20;;;;;;;;;2.25;1.00;;;;;;;;5073447;28;45436;-81
2022/04/01 04:17:48;;;;;;;;;2.00;1.00;;;;;;;;5061811;28;45399;-82
2022/04/01 04:20:25;;;;;;;;;0.75;0.75;;;;;;;;5070630;28;45542;-83
2022/04/01 04:22:55;;;;;;;;;3.50;1.25;;;;;;;;5070225;27;46147;-82
2022/04/01 04:25:25;;;;;;;;;2.75;1.00;;;;;;;;5063489;28;45458;-83
2022/04/01 04:27:56;;;;;;;;;2.00;2.00;;;;;;;;5076084;27;45437;-82
2022/04/01 04:30:25;;;;;;;;;1.00;1.00;;;;;;;;5073230;28;45477;-84
2022/04/01 04:32:50;;;;;;;;;10.00;10.00;;;;;;;;5061123;28;46041;-82
2022/04/01 04:35:16;;;;;;;;;0.00;0.00;;;;;;;;5071337;28;45437;-84
2022/04/01 04:37:45;;;;;;;;;4.00;3.75;;;;;;;;5074641;27;45425;-84
2022/04/01 04:40:12;;;;;;;;;4.00;2.75;;;;;;;;5073599;27;45676;-84
2022/04/01 04:42:38;;;;;;;;;2.25;2.25;;;;;;;;5073914;27;45771;-82
2022/04/01 04:45:04;;;;;;;;;4.00;4.00;;;;;;;;5074529;27;45378;-83
2022/04/01 04:47:30;;;;;;;;;4.00;2.25;;;;;;;;5073938;27;45524;-83
2022/04/01 04:49:57;;;;;;;;;3.00;3.00;;;;;;;;5073873;27;45455;-83
2022/04/01 04:52:23;;;;;;;;;2.25;2.25;;;;;;;;5075648;27;46211;-83
2022/04/01 04:54:50;;;;;;;;;10.50;10.00;;;;;;;;5073497;27;45547;-83
2022/04/01 04:57:19;;;;;;;;;21.00;21.00;;;;;;;;5074337;27;45187;-84
2022/04/01 04:59:45;;;;;;;;;3.00;3.00;;;;;;;;5074226;27;45509;-83
2022/04/01 05:02:10;;;;;;;;;4.25;3.00;;;;;;;;5073302;27;46403;-84
2022/04/01 05:04:55;;;;;;;;;5.75;4.50;;;;;;;;5072833;27;45434;-82
2022/04/01 05:07:44;;;;;;;;;2.00;2.00;;;;;;;;5073887;28;45354;-82
2022/04/01 05:10:16;;;;;;;;;2.75;2.75;;;;;;;;5073494;28;45394;-84
2022/04/01 05:13:00;;;;;;;;;3.50;3.00;;;;;;;;5073245;27;46398;-83
2022/04/01 05:15:26;;;;;;;;;2.50;2.50;;;;;;;;5070898;28;45520;-79
2022/04/01 05:18:01;;;;;;;;;2.25;2.25;;;;;;;;5072201;28;45463;-80
2022/04/01 05:20:28;;;;;;;;;2.75;2.75;;;;;;;;5061498;28;45382;-84
2022/04/01 05:23:12;;;;;;;;;3.00;3.00;;;;;;;;5066207;28;45556;-83
2022/04/01 05:25:41;;;;;;;;;5.25;5.25;;;;;;;;5073920;28;45624;-84
2022/04/01 05:28:10;;;;;;;;;2.25;2.25;;;;;;;;5072988;27;45418;-81
2022/04/01 05:30:37;;;;;;;;;4.00;4.00;;;;;;;;5073076;27;45476;-80
2022/04/01 05:33:09;;;;;;;;;5.25;3.25;;;;;;;;5058124;27;46562;-83
2022/04/01 05:35:41;;;;;;;;;2.50;2.50;;;;;;;;5071999;28;45579;-81
2022/04/01 05:38:09;;;;;;;;;3.25;3.25;;;;;;;;5072517;27;45293;-79
2022/04/01 05:40:36;;;;;;;;;2.50;1.00;;;;;;;;5072642;27;45536;-81
2022/04/01 05:43:02;;;;;;;;;2.50;2.00;;;;;;;;5073423;27;47283;-79
2022/04/01 05:45:29;;;;;;;;;7.00;2.50;;;;;;;;5073113;27;45648;-80
2022/04/01 05:47:55;;;;;;;;;3.50;2.00;;;;;;;;5070936;28;45275;-79
2022/04/01 05:50:21;;;;;;;;;3.00;3.00;;;;;;;;5074069;27;45504;-79
2022/04/01 05:52:47;;;;;;;;;8.00;8.00;;;;;;;;5076361;27;46329;-81
2022/04/01 05:55:14;;;;;;;;;3.50;3.50;;;;;;;;5076318;27;45520;-82
2022/04/01 05:57:39;;;;;;;;;4.75;4.75;;;;;;;;5076066;27;45508;-81
2022/04/01 06:00:05;;;;;;;;;8.00;4.75;;;;;;;;5061830;28;45509;-81
2022/04/01 06:02:36;;;;;;;;;7.00;7.00;;;;;;;;5073953;28;45459;-80
2022/04/01 06:05:23;;;;;;;;;5.50;5.50;;;;;;;;5074226;28;45330;-80
2022/04/01 06:07:51;;;;;;;;;7.00;7.00;;;;;;;;5075683;27;45357;-80
2022/04/01 06:10:34;;;;;;;;;3.75;3.75;;;;;;;;5075248;28;45385;-81
2022/04/01 06:12:59;;;;;;;;;8.00;6.00;;;;;;;;5061523;28;46502;-81
2022/04/01 06:15:37;;;;;;;;;5.00;5.00;;;;;;;;5059394;28;45651;-81
2022/04/01 06:18:21;;;;;;;;;6.00;6.00;;;;;;;;5074928;28;45488;-80
2022/04/01 06:20:47;;;;;;;;;8.25;8.25;;;;;;;;5075859;28;45504;-80
2022/04/01 06:23:18;;;;;;;;;6.00;5.00;;;;;;;;5075632;27;46191;-82
2022/04/01 06:25:47;;;;;;;;;5.00;5.00;;;;;;;;5075162;27;45352;-81
2022/04/01 06:28:20;;;;;;;;;7.00;5.50;;;;;;;;5075465;27;45597;-81
2022/04/01 06:30:47;;;;;;;;;7.75;7.75;;;;;;;;5075652;28;45509;-81
2022/04/01 06:33:18;;;;;;;;;7.00;7.00;;;;;;;;5072437;28;46597;-82
2022/04/01 06:35:50;;;;;;;;;7.25;6.75;;;;;;;;5075242;28;45552;-81
2022/04/01 06:38:36;;;;;;;;;7.50;7.00;;;;;;;;5067531;27;45315;-82
2022/04/01 06:41:08;;;;;;;;;8.50;8.50;;;;;;;;5069753;28;45463;-82
2022/04/01 06:43:35;;;;;;;;;8.25;8.25;;;;;;;;5073833;28;48381;-82
2022/04/01 06:46:01;;;;;;;;;8.00;6.50;;;;;;;;5075438;28;45450;-81
2022/04/01 06:48:26;;;;;;;;;8.00;8.00;;;;;;;;5077169;28;45409;-81
2022/04/01 06:50:53;;;;;;;;;20.25;18.00;;;;;;;;5075534;28;45387;-82
2022/04/01 06:53:20;;;;;;;;;9.75;9.75;;;;;;;;5074860;27;46245;-81
2022/04/01 06:55:46;;;;;;;;;9.50;8.25;;;;;;;;5074239;27;45438;-81
2022/04/01 06:58:11;;;;;;;;;11.75;10.00;;;;;;;;5075345;27;45554;-82
2022/04/01 07:00:42;;;;;;;;;8.75;7.25;;;;;;;;5058524;28;45433;-83
2022/04/01 07:03:07;;;;;;;;;12.00;10.25;;;;;;;;5060085;27;45910;-84
2022/04/01 07:05:34;;;;;;;;;15.00;15.00;;;;;;;;5073044;28;45314;-84
2022/04/01 07:08:00;;;;;;;;;12.50;11.50;;;;;;;;5072732;28;45374;-86
2022/04/01 07:10:26;;;;;;;;;11.50;11.50;;;;;;;;5070356;27;45522;-84
2022/04/01 07:12:52;;;;;;;;;9.25;8.50;;;;;;;;5065167;28;46975;-83
2022/04/01 07:15:17;;;;;;;;;13.50;10.25;;;;;;;;5071738;28;45445;-84
2022/04/01 07:17:42;;;;;;;;;10.25;9.50;;;;;;;;5065794;27;45535;-84
2022/04/01 07:20:08;;;;;;;;;15.00;13.25;;;;;;;;5067870;27;45466;-84
2022/04/01 07:22:36;;;;;;;;;7.75;7.75;;;;;;;;5071847;27;46342;-84
2022/04/01 07:25:01;;;;;;;;;8.75;7.75;;;;;;;;5072494;28;45398;-84
2022/04/01 07:27:27;;;;;;;;;11.25;10.00;;;;;;;;5062824;28;45324;-84
2022/04/01 07:29:52;;;;;;;;;8.00;8.00;;;;;;;;5067219;27;45371;-84
2022/04/01 07:32:29;;;;;;;;;14.00;11.75;;;;;;;;5064111;28;46798;-84
2022/04/01 07:34:55;;;;;;;;;6.00;6.00;;;;;;;;5064647;28;45457;-84
2022/04/01 07:37:23;;;;;;;;;9.75;9.50;;;;;;;;5075391;27;45580;-84
2022/04/01 07:39:48;;;;;;;;;14.25;13.25;;;;;;;;5069602;27;45420;-85
2022/04/01 07:42:14;;;;;;;;;10.00;8.00;;;;;;;;5062829;28;46546;-84
2022/04/01 07:44:39;;;;;;;;;12.75;8.00;;;;;;;;5069719;28;45421;-83
2022/04/01 07:47:09;;;;;;;;;9.25;9.00;;;;;;;;5072772;28;45444;-83
2022/04/01 07:49:34;;;;;;;;;11.75;9.75;;;;;;;;5071878;27;45458;-84
2022/04/01 07:51:59;;;;;;;;;8.00;8.00;;;;;;;;5063450;28;45493;-83
2022/04/01 07:54:25;;;;;;;;;11.75;7.75;;;;;;;;5073967;27;45516;-85
2022/04/01 07:56:50;;;;;;;;;8.75;7.50;;;;;;;;5071904;27;45599;-84
2022/04/01 07:59:15;;;;;;;;;9.00;9.00;;;;;;;;5075766;28;45334;-83
2022/04/01 08:01:40;;;;;;;;;10.25;8.75;;;;;;;;5074433;28;46491;-84
2022/04/01 08:04:06;;;;;;;;;14.00;9.25;;;;;;;;5069567;27;45369;-84
2022/04/01 08:06:31;;;;;;;;;7.75;7.75;;;;;;;;5065021;28;45321;-85
2022/04/01 08:08:58;;;;;;;;;13.00;10.00;;;;;;;;5067154;27;45355;-82
2022/04/01 08:11:24;;;;;;;;;9.00;8.00;;;;;;;;5073231;27;46394;-84
2022/04/01 08:13:49;;;;;;;;;9.00;8.00;;;;;;;;5072827;27;45212;-84
2022/04/01 08:16:14;;;;;;;;;9.00;7.50;;;;;;;;5071774;28;45309;-83
2022/04/01 08:18:40;;;;;;;;;10.75;9.00;;;;;;;;5070105;28;45463;-83
2022/04/01 08:21:05;;;;;;;;;8.00;8.00;;;;;;;;5071242;27;46479;-84
2022/04/01 08:23:34;;;;;;;;;11.50;10.00;;;;;;;;5074049;28;45429;-85
2022/04/01 08:25:59;;;;;;;;;9.50;9.50;;;;;;;;5068979;27;45366;-85
2022/04/01 08:28:25;;;;;;;;;9.00;6.00;;;;;;;;5060751;28;45517;-84
2022/04/01 08:30:50;;;;;;;;;10.50;10.50;;;;;;;;5071491;28;45455;-85
2022/04/01 08:33:17;;;;;;;;;11.00;9.25;;;;;;;;5061746;28;45421;-85
2022/04/01 08:35:43;;;;;;;;;12.25;8.75;;;;;;;;5061570;28;45416;-82
2022/04/01 08:38:09;;;;;;;;;8.00;7.00;;;;;;;;5064181;28;45412;-84
2022/04/01 08:40:34;;;;;;;;;16.50;15.00;;;;;;;;5072276;27;46385;-83
2022/04/01 08:43:00;;;;;;;;;11.75;11.50;;;;;;;;5076513;27;45282;-84
2022/04/01 08:45:25;;;;;;;;;14.00;10.50;;;;;;;;5058231;27;45474;-84
2022/04/01 08:47:50;;;;;;;;;14.50;13.75;;;;;;;;5063357;28;45248;-83
2022/04/01 08:50:15;;;;;;;;;9.75;9.75;;;;;;;;5070791;28;45487;-84
2022/04/01 08:52:41;;;;;;;;;11.75;10.00;;;;;;;;5077457;28;45266;-84
2022/04/01 08:55:07;;;;;;;;;21.25;20.00;;;;;;;;5080035;28;45246;-83
2022/04/01 08:57:33;;;;;;;;;22.50;18.50;;;;;;;;5074546;27;45154;-83
2022/04/01 09:00:00;;;;;;;;;14.00;11.75;;;;;;;;5077045;27;45387;-79
2022/04/01 09:02:26;;;;;;;;;19.00;17.25;;;;;;;;5067093;28;45514;-81
2022/04/01 09:05:02;;;;;;;;;11.00;11.00;;;;;;;;5066673;28;45268;-80
2022/04/01 09:07:28;;;;;;;;;10.75;9.50;;;;;;;;5073332;27;45469;-80
2022/04/01 09:09:59;;;;;;;;;10.75;9.50;;;;;;;;5073126;28;47254;-80
2022/04/01 09:12:25;;;;;;;;;9.25;9.25;;;;;;;;5072456;27;45400;-81
2022/04/01 09:14:52;;;;;;;;;8.00;8.00;;;;;;;;5065395;27;45481;-81
2022/04/01 09:17:17;;;;;;;;;8.75;8.25;;;;;;;;5070184;28;45661;-80
2022/04/01 09:19:43;;;;;;;;;11.75;11.75;;;;;;;;5070257;27;47118;-79
2022/04/01 09:22:21;;;;;;;;;13.00;10.25;;;;;;;;5062927;27;45465;-80
2022/04/01 09:25:02;;;;;;;;;12.25;12.25;;;;;;;;5069547;27;45512;-81
2022/04/01 09:28:00;;;;;;;;;11.50;11.50;;;;;;;;5073954;27;45429;-82
2022/04/01 09:30:29;;;;;;;;;13.00;13.00;;;;;;;;5025528;28;45552;-78
2022/04/01 09:32:56;;;;;;;;;14.00;10.50;;;;;;;;5033248;28;45486;-79
2022/04/01 09:35:31;;;;;;;;;13.25;13.25;;;;;;;;5033569;28;45419;-80
2022/04/01 09:38:07;;;;;;;;;12.75;10.75;;;;;;;;5032087;28;45620;-80
2022/04/01 09:40:35;;;;;;;;;11.25;10.00;;;;;;;;5037251;28;45416;-79
2022/04/01 09:43:00;;;;;;;;;15.50;13.75;;;;;;;;5038963;28;45274;-82
2022/04/01 09:45:26;;;;;;;;;10.25;10.25;;;;;;;;5036711;28;45537;-80
2022/04/01 09:47:59;;;;;;;;;10.00;10.00;;;;;;;;5020549;28;45643;-81
2022/04/01 09:50:26;;;;;;;;;8.75;8.75;;;;;;;;5025388;28;45651;-81
2022/04/01 09:52:52;;;;;;;;;12.75;11.00;;;;;;;;5030388;28;45463;-80
2022/04/01 09:55:17;;;;;;;;;11.00;9.25;;;;;;;;5030120;28;45524;-80
2022/04/01 09:57:42;;;;;;;;;10.00;7.75;;;;;;;;5020872;28;45584;-81
2022/04/01 10:00:09;;;;;;;;;13.25;12.50;;;;;;;;5022287;28;47178;-81
2022/04/01 10:02:35;;;;;;;;;14.50;13.75;;;;;;;;5031914;28;45453;-81
2022/04/01 10:05:00;;;;;;;;;14.75;12.25;;;;;;;;5024341;28;45426;-81
2022/04/01 10:07:27;;;;;;;;;12.25;12.25;;;;;;;;5062501;27;45492;-81
2022/04/01 10:09:54;;;;;;;;;15.50;14.25;;;;;;;;5077302;27;46237;-81
2022/04/01 10:12:23;;;;;;;;;19.50;15.75;;;;;;;;5070105;28;45533;-82
2022/04/01 10:14:54;;;;;;;;;11.50;10.50;;;;;;;;5069094;28;45492;-82
2022/04/01 10:17:20;;;;;;;;;14.75;14.00;;;;;;;;5063380;28;45468;-81
2022/04/01 10:19:47;;;;;;;;;14.75;11.00;;;;;;;;5063147;27;46657;-81
2022/04/01 10:22:16;;;;;;;;;17.50;15.25;;;;;;;;5066295;28;45256;-80
2022/04/01 10:24:47;;;;;;;;;14.00;12.00;;;;;;;;5065779;27;45253;-81
2022/04/01 10:27:31;;;;;;;;;15.00;15.00;;;;;;;;5076491;27;45286;-80
2022/04/01 10:29:57;;;;;;;;;15.25;12.75;;;;;;;;5072838;28;45552;-80
2022/04/01 10:32:29;;;;;;;;;17.00;16.00;;;;;;;;5066016;28;45585;-80
2022/04/01 10:34:56;;;;;;;;;17.00;14.25;;;;;;;;5068897;28;45306;-80
2022/04/01 10:37:23;;;;;;;;;14.25;13.00;;;;;;;;5067971;28;45282;-80
2022/04/01 10:39:58;;;;;;;;;16.50;15.25;;;;;;;;5074310;27;46162;-81
2022/04/01 10:42:33;;;;;;;;;15.25;14.00;;;;;;;;5074479;27;45309;-82
2022/04/01 10:45:01;;;;;;;;;16.75;16.50;;;;;;;;5073124;27;46882;-80
2022/04/01 10:53:32;;;;;;;;;22.25;21.00;;;;;;;;5038339;28;45431;-88
2022/04/01 10:56:16;;;;;;;;;21.25;18.25;;;;;;;;5029872;28;45367;-77
2022/04/01 10:58:59;;;;;;;;;14.75;14.75;;;;;;;;5030237;28;45491;-79
2022/04/01 11:01:25;;;;;;;;;16.00;15.75;;;;;;;;5017496;28;45680;-78
2022/04/01 11:03:53;;;;;;;;;12.25;8.50;;;;;;;;5028076;28;45813;-78
2022/04/01 11:06:22;;;;;;;;;12.25;12.25;;;;;;;;5031783;28;45492;-86
2022/04/01 11:08:51;;;;;;;;;14.25;14.25;;;;;;;;5038596;28;45568;-87
2022/04/01 11:11:16;;;;;;;;;15.75;15.25;;;;;;;;5033654;28;46583;-89
2022/04/01 11:13:41;;;;;;;;;14.00;14.00;;;;;;;;5025636;28;45438;-88
2022/04/01 11:16:32;;;;;;;;;17.75;15.25;;;;;;;;5018619;28;45942;-86
2022/04/01 11:19:14;;;;;;;;;16.75;15.75;;;;;;;;5015546;28;45484;-89
2022/04/01 11:21:39;;;;;;;;;15.50;14.00;;;;;;;;5012302;28;46475;-88
2022/04/01 11:24:20;;;;;;;;;18.00;15.00;;;;;;;;5014282;28;45507;-88
2022/04/01 11:26:46;;;;;;;;;16.00;13.00;;;;;;;;5017504;28;45439;-87
2022/04/01 11:29:21;;;;;;;;;21.25;16.50;;;;;;;;5033689;28;45485;-88
2022/04/01 11:31:47;;;;;;;;;11.50;11.00;;;;;;;;5032652;28;45560;-85
2022/04/01 11:34:12;;;;;;;;;18.00;14.50;;;;;;;;5032277;28;45548;-84
2022/04/01 11:36:37;;;;;;;;;15.50;15.50;;;;;;;;5031533;28;45538;-86
2022/04/01 11:39:04;;;;;;;;;15.75;15.50;;;;;;;;5028464;28;45718;-85
2022/04/01 11:41:30;;;;;;;;;14.75;14.75;;;;;;;;5023093;28;46043;-86
2022/04/01 11:43:55;;;;;;;;;15.00;13.50;;;;;;;;5025578;28;45442;-86
2022/04/01 11:46:21;;;;;;;;;17.00;15.25;;;;;;;;5025914;28;45379;-86
2022/04/01 11:48:48;;;;;;;;;17.25;16.75;;;;;;;;5030234;28;45601;-86
2022/04/01 11:51:15;;;;;;;;;17.00;16.00;;;;;;;;5032330;28;46484;-85
2022/04/01 11:53:43;;;;;;;;;21.75;19.75;;;;;;;;5032197;28;45474;-86
2022/04/01 11:56:10;;;;;;;;;20.25;18.50;;;;;;;;5059546;28;45312;-85
2022/04/01 11:58:48;;;;;;;;;20.00;16.50;;;;;;;;5075267;27;45457;-85
2022/04/01 12:01:15;;;;;;;;;16.25;11.50;;;;;;;;5076497;27;46354;-85
2022/04/01 12:03:40;;;;;;;;;21.00;18.50;;;;;;;;5083058;27;44788;-86
2022/04/01 12:08:49;;;;;;;;;16.25;16.25;;;;;;;;5062103;28;45403;-85
2022/04/01 12:11:15;;;;;;;;;19.25;19.25;;;;;;;;5064092;28;45845;-83
2022/04/01 12:13:50;;;;;;;;;10.75;8.25;;;;;;;;5057682;28;45403;-82
2022/04/01 12:16:16;;;;;;;;;21.50;16.75;;;;;;;;5058120;28;45452;-82
2022/04/01 12:18:44;;;;;;;;;20.00;16.50;;;;;;;;5073659;28;45587;-83
2022/04/01 12:21:15;;;;;;;;;20.00;18.00;;;;;;;;5073338;28;45479;-82
2022/04/01 12:23:44;;;;;;;;;12.25;12.25;;;;;;;;5073579;27;45393;-83
2022/04/01 12:26:09;;;;;;;;;18.25;16.75;;;;;;;;5075116;27;45553;-82
2022/04/01 12:28:36;;;;;;;;;16.50;12.50;;;;;;;;5074903;27;45569;-82
2022/04/01 12:31:01;;;;;;;;;22.00;18.25;;;;;;;;5061962;28;47156;-79
2022/04/01 12:33:29;;;;;;;;;18.25;17.25;;;;;;;;5077084;27;45337;-87
2022/04/01 12:35:54;;;;;;;;;15.25;13.50;;;;;;;;5079088;28;45442;-87
2022/04/01 12:38:20;;;;;;;;;14.00;11.75;;;;;;;;5069397;27;45337;-84
2022/04/01 12:40:45;;;;;;;;;15.00;15.00;;;;;;;;5066836;28;45894;-84
2022/04/01 12:43:29;;;;;;;;;17.75;15.50;;;;;;;;5077336;28;45212;-86
2022/04/01 12:46:01;;;;;;;;;16.50;16.00;;;;;;;;5068053;28;44887;-85
2022/04/01 12:48:28;;;;;;;;;16.25;13.25;;;;;;;;5075189;27;45430;-85
2022/04/01 12:51:03;;;;;;;;;20.00;18.50;;;;;;;;5061952;27;46033;-84
2022/04/01 12:53:29;;;;;;;;;21.50;15.75;;;;;;;;5065234;28;45588;-85
2022/04/01 12:56:14;;;;;;;;;18.75;16.00;;;;;;;;5067840;28;47726;-85
2022/04/01 12:58:49;;;;;;;;;15.50;15.25;;;;;;;;5074578;27;45612;-85
2022/04/01 13:01:18;;;;;;;;;13.75;13.75;;;;;;;;5077429;27;46339;-85
2022/04/01 13:03:44;;;;;;;;;21.00;18.25;;;;;;;;5075434;27;45440;-85
2022/04/01 13:06:10;;;;;;;;;16.50;16.50;;;;;;;;5077971;27;45327;-83
2022/04/01 13:08:35;;;;;;;;;19.75;17.75;;;;;;;;5066536;27;45359;-83
2022/04/01 13:11:13;;;;;;;;;16.75;16.25;;;;;;;;5070825;28;47433;-82
2022/04/01 13:13:39;;;;;;;;;15.50;15.50;;;;;;;;5075877;27;45481;-80
2022/04/01 13:16:04;;;;;;;;;17.00;15.75;;;;;;;;5076725;27;45422;-79
2022/04/01 13:18:32;;;;;;;;;15.25;12.75;;;;;;;;5076674;27;45281;-80
2022/04/01 13:20:57;;;;;;;;;15.75;14.50;;;;;;;;5074572;28;47149;-80
2022/04/01 13:23:22;;;;;;;;;17.50;16.25;;;;;;;;5076251;28;45494;-81
2022/04/01 13:25:47;;;;;;;;;16.50;14.00;;;;;;;;5076184;28;45421;-79
2022/04/01 13:28:14;;;;;;;;;11.00;11.00;;;;;;;;5074710;28;45366;-85
2022/04/01 13:30:39;;;;;;;;;16.25;13.00;;;;;;;;5077221;28;46075;-84
2022/04/01 13:33:05;;;;;;;;;19.25;17.00;;;;;;;;5077376;28;45504;-82
2022/04/01 13:35:30;;;;;;;;;19.50;18.25;;;;;;;;5066529;27;45291;-81
2022/04/01 13:37:56;;;;;;;;;19.00;16.25;;;;;;;;5069906;28;45507;-83
2022/04/01 13:40:21;;;;;;;;;18.50;17.00;;;;;;;;5076692;28;45382;-79
2022/04/01 13:42:46;;;;;;;;;18.00;16.25;;;;;;;;5077149;28;45491;-81
2022/04/01 13:45:12;;;;;;;;;17.00;15.25;;;;;;;;5077242;28;45508;-80
2022/04/01 13:47:37;;;;;;;;;16.75;16.25;;;;;;;;5065448;28;48855;-77
2022/04/01 13:50:02;;;;;;;;;20.75;19.25;;;;;;;;5070517;28;46035;-78
2022/04/01 13:52:27;;;;;;;;;19.50;18.25;;;;;;;;5075521;28;45565;-79
2022/04/01 13:54:52;;;;;;;;;23.75;20.75;;;;;;;;5076031;28;45383;-82
2022/04/01 13:57:18;;;;;;;;;16.25;15.25;;;;;;;;5076448;27;45329;-80
2022/04/01 13:59:44;;;;;;;;;24.50;22.50;;;;;;;;5075980;28;47058;-77
2022/04/01 14:02:10;;;;;;;;;22.25;19.50;;;;;;;;5078912;27;45551;-81
2022/04/01 14:04:36;;;;;;;;;22.25;18.50;;;;;;;;5091206;27;46960;-81
2022/04/01 14:07:07;;;;;;;;;20.75;18.75;;;;;;;;5072676;28;45658;-79
2022/04/01 14:09:33;;;;;;;;;26.00;18.75;;;;;;;;5069099;28;46879;-79
2022/04/01 14:11:59;;;;;;;;;20.50;20.50;;;;;;;;5079078;27;45828;-87
2022/04/01 14:14:24;;;;;;;;;20.50;19.50;;;;;;;;5079211;27;45399;-86
2022/04/01 14:16:50;;;;;;;;;20.50;17.25;;;;;;;;5073091;27;45428;-86
2022/04/01 14:19:15;;;;;;;;;19.00;17.00;;;;;;;;5065129;28;46325;-87
2022/04/01 14:21:41;;;;;;;;;20.75;18.50;;;;;;;;5059681;28;46075;-79
2022/04/01 14:24:06;;;;;;;;;14.50;11.75;;;;;;;;5062561;27;45285;-82
2022/04/01 14:26:33;;;;;;;;;19.25;16.75;;;;;;;;5073907;28;45628;-79
2022/04/01 14:30:16;;;;;;;;;18.50;18.50;;;;;;;;5074229;27;45695;-77
2022/04/01 14:31:57;;;;;;;;;21.50;19.00;;;;;;;;5075534;28;45447;-79
2022/04/01 14:34:23;;;;;;;;;20.00;16.75;;;;;;;;5076002;27;45517;-79
2022/04/01 14:36:48;;;;;;;;;21.00;18.25;;;;;;;;5075759;27;45334;-80
2022/04/01 14:39:14;;;;;;;;;20.75;16.50;;;;;;;;5076411;28;45367;-80
2022/04/01 14:41:41;;;;;;;;;19.25;16.50;;;;;;;;5074990;27;45442;-78
2022/04/01 14:44:06;;;;;;;;;18.75;18.75;;;;;;;;5074426;28;45433;-80
2022/04/01 14:46:31;;;;;;;;;14.50;14.50;;;;;;;;5075261;28;45572;-88
2022/04/01 14:48:57;;;;;;;;;23.50;19.25;;;;;;;;5074153;28;46881;-81